»·PEaware :: UAL566 KTUS-KSNA

UAL566 :: KTUS-KSNA

FLIGHT INFORMATION

Flight Status: Arrived
Operator:
United Airlines
More flights by this operator :: More flights under this callsign
Pilot: Anonymous 1753 (1753)
Aircraft: AIRBUS A320
(A320)
More flights by this aircraft type
Origin: KTUS Tucson Intl
United States
Destination: KSNA John Wayne-Orange Co
United States
More flights between these airports :: More routes between these airports
Route: BURRO4 GBN J104 CULTS HRRBR EMLLD DSNEE4
File this flight plan on PilotEdge
Remarks:
Altitude:
(Current/Filed)
34,000ft
Speed:
(Current/Filed)
438kts
Departed: 01-Dec-20 09:49 PM
Arrived: 01-Dec-20 11:37 PM
Distance/Time
Traveled:
361nm/1:48
Distance/Time
To Go:
Arrived

Flight Plot

Page will automatically refresh every two minutes.

Flight plan parsing failed; only flown route is shown


Map Options




Map Legend


Flown Route
Filed Route
Departure Airport
Arrival Airport
Navaid (VOR, NDB)
Fix

Horizontal Profiles

Position Reports

Time Latitude Longitude Heading Altitude Ground
Speed
01-Dec-20 21:21 32.121493 -110.940135 128 2598ft 0kts
01-Dec-20 21:22 32.121493 -110.940135 128 2598ft 0kts
01-Dec-20 21:23 32.121493 -110.940135 128 2598ft 0kts
01-Dec-20 21:24 32.121493 -110.940135 128 2598ft 0kts
01-Dec-20 21:25 32.121493 -110.940135 128 2598ft 0kts
01-Dec-20 21:26 32.121493 -110.940135 128 2598ft 0kts
01-Dec-20 21:27 32.121493 -110.940135 128 2598ft 0kts
01-Dec-20 21:28 32.121493 -110.940135 128 2598ft 0kts
01-Dec-20 21:29 32.121493 -110.940135 128 2598ft 0kts
01-Dec-20 21:30 32.121493 -110.940135 128 2598ft 0kts
01-Dec-20 21:31 32.121493 -110.940135 128 2598ft 0kts
01-Dec-20 21:32 32.121493 -110.940135 128 2598ft 0kts
01-Dec-20 21:33 32.121493 -110.940136 128 2598ft 0kts
01-Dec-20 21:34 32.121544 -110.940220 123 2598ft 0kts
01-Dec-20 21:35 32.121630 -110.940551 91 2597ft 2kts
01-Dec-20 21:36 32.121641 -110.940926 91 2596ft 0kts
01-Dec-20 21:37 32.121641 -110.940926 91 2596ft 0kts
01-Dec-20 21:38 32.121641 -110.940926 91 2596ft 0kts
01-Dec-20 21:39 32.121641 -110.940926 91 2596ft 0kts
01-Dec-20 21:40 32.121641 -110.940926 91 2596ft 0kts
01-Dec-20 21:41 32.121641 -110.940926 91 2596ft 0kts
01-Dec-20 21:42 32.121641 -110.940926 91 2596ft 0kts
01-Dec-20 21:43 32.121720 -110.940781 56 2596ft 0kts
01-Dec-20 21:44 32.120449 -110.941955 309 2596ft 21kts
01-Dec-20 21:45 32.123931 -110.946380 257 2581ft 16kts
01-Dec-20 21:46 32.123846 -110.946574 227 2581ft 0kts
01-Dec-20 21:47 32.122940 -110.947101 161 2581ft 26kts
01-Dec-20 21:48 32.103758 -110.924885 137 4009ft 166kts
01-Dec-20 21:49 32.069421 -110.885047 142 6894ft 247kts
01-Dec-20 21:50 32.013876 -110.887874 225 9871ft 285kts
01-Dec-20 21:51 31.976682 -110.952373 263 11684ft 335kts
01-Dec-20 21:52 32.001684 -111.038815 301 12908ft 375kts
01-Dec-20 21:53 32.042614 -111.122283 302 14959ft 385kts
01-Dec-20 21:54 32.090212 -111.211300 313 16984ft 390kts
01-Dec-20 21:55 32.151716 -111.291578 314 19847ft 372kts
01-Dec-20 21:56 32.210498 -111.368532 314 23428ft 337kts
01-Dec-20 21:57 32.259006 -111.432102 314 26618ft 303kts
01-Dec-20 21:58 32.298748 -111.492092 307 29726ft 265kts
01-Dec-20 21:59 32.351076 -111.584658 306 32014ft 274kts
01-Dec-20 22:00 32.414186 -111.696752 305 34142ft 290kts
01-Dec-20 22:01 32.484063 -111.821170 305 34157ft 357kts
01-Dec-20 22:02 32.548520 -111.936479 305 34149ft 398kts
01-Dec-20 22:03 32.599149 -112.027351 305 34151ft 408kts
01-Dec-20 22:04 32.651365 -112.121309 305 34147ft 407kts
01-Dec-20 22:05 32.704532 -112.217163 305 34132ft 406kts
01-Dec-20 22:06 32.757225 -112.312388 305 34109ft 406kts
01-Dec-20 22:08 32.851295 -112.482992 305 34111ft 406kts
01-Dec-20 22:09 32.893685 -112.560127 305 34112ft 406kts
01-Dec-20 22:10 32.944182 -112.652165 305 34115ft 406kts
01-Dec-20 22:11 32.987732 -112.715733 312 34133ft 405kts
01-Dec-20 22:12 33.040795 -112.785798 313 34169ft 402kts
01-Dec-20 22:13 33.097499 -112.860835 313 34157ft 397kts
01-Dec-20 22:14 33.246412 -113.058526 313 34083ft 398kts
01-Dec-20 22:15 33.351439 -113.198717 313 34097ft 407kts
01-Dec-20 22:16 33.467842 -113.354581 313 34099ft 411kts
01-Dec-20 22:17 33.525275 -113.431794 313 34160ft 414kts
01-Dec-20 22:18 33.580591 -113.519535 298 34185ft 419kts
01-Dec-20 22:19 33.607412 -113.634816 286 34190ft 425kts
01-Dec-20 22:20 33.625159 -113.730949 286 34172ft 425kts
01-Dec-20 22:21 33.643948 -113.832715 286 34163ft 424kts
01-Dec-20 22:22 33.678938 -113.940364 297 34171ft 417kts
01-Dec-20 22:23 33.719295 -114.045228 297 34149ft 416kts
01-Dec-20 22:23 33.751068 -114.129371 294 34139ft 417kts
01-Dec-20 22:25 33.769824 -114.246043 282 34146ft 424kts
01-Dec-20 22:25 33.780717 -114.339908 282 34064ft 424kts
01-Dec-20 22:26 33.792514 -114.441787 282 33380ft 425kts
01-Dec-20 22:27 33.803983 -114.541378 282 32690ft 428kts
01-Dec-20 22:28 33.815677 -114.643746 282 31983ft 431kts
01-Dec-20 22:29 33.827105 -114.744510 281 31294ft 434kts
01-Dec-20 22:30 33.837750 -114.839090 281 30652ft 435kts
01-Dec-20 22:31 33.841293 -114.870718 281 30437ft 436kts
01-Dec-20 22:32 33.853661 -114.981397 281 30146ft 441kts
01-Dec-20 22:33 33.866572 -115.097686 281 30145ft 447kts
01-Dec-20 22:34 33.878514 -115.206689 280 30158ft 422kts
01-Dec-20 22:35 33.889447 -115.307845 280 30157ft 371kts
01-Dec-20 22:36 33.899998 -115.405493 281 30155ft 326kts
01-Dec-20 22:37 33.909079 -115.489342 281 30157ft 318kts
01-Dec-20 22:38 33.918257 -115.574648 281 30160ft 320kts
01-Dec-20 22:39 33.927018 -115.661340 278 30139ft 321kts
01-Dec-20 22:40 33.932091 -115.732597 278 29567ft 320kts
01-Dec-20 22:41 33.938124 -115.816831 278 28866ft 349kts
01-Dec-20 22:42 33.945672 -115.922480 277 28134ft 408kts
01-Dec-20 22:43 33.953134 -116.030110 277 27296ft 456kts
01-Dec-20 22:44 33.967289 -116.146226 279 26525ft 462kts
01-Dec-20 22:46 33.960395 -116.257943 262 25812ft 470kts
01-Dec-20 22:46 33.944328 -116.365876 261 20513ft 542kts
01-Dec-20 22:47 33.916356 -116.591680 264 24125ft 425kts
01-Dec-20 22:48 33.893757 -116.765740 264 21005ft 416kts
01-Dec-20 22:49 33.884062 -116.857589 265 18406ft 428kts
01-Dec-20 22:50 33.871617 -116.971602 264 15143ft 435kts
01-Dec-20 22:51 33.860377 -117.072458 263 13089ft 417kts
01-Dec-20 22:52 33.849997 -117.163560 263 9895ft 369kts
01-Dec-20 22:53 33.840727 -117.246914 263 8339ft 309kts
01-Dec-20 22:54 33.832290 -117.322290 263 7640ft 282kts
01-Dec-20 22:55 33.824366 -117.392463 263 7631ft 279kts
01-Dec-20 22:56 33.820589 -117.456997 280 7538ft 228kts
01-Dec-20 22:57 33.829995 -117.512289 283 6917ft 220kts
01-Dec-20 22:58 33.839531 -117.566994 282 6233ft 217kts
01-Dec-20 22:59 33.848939 -117.620685 282 5595ft 215kts
01-Dec-20 23:00 33.858048 -117.672331 282 5081ft 212kts
01-Dec-20 23:01 33.866122 -117.721439 267 4453ft 202kts
01-Dec-20 23:02 33.843230 -117.762084 212 3620ft 186kts
01-Dec-20 23:03 33.813099 -117.781723 207 2947ft 139kts
01-Dec-20 23:04 33.787958 -117.797649 207 2367ft 133kts
01-Dec-20 23:05 33.775623 -117.805476 207 2136ft 133kts
01-Dec-20 23:06 33.775623 -117.805476 207 2136ft 133kts
01-Dec-20 23:07 33.775623 -117.805476 207 2136ft 133kts
01-Dec-20 23:08 33.775623 -117.805476 207 2136ft 133kts
01-Dec-20 23:09 33.775623 -117.805476 207 2136ft 133kts
01-Dec-20 23:10 33.775623 -117.805476 207 2136ft 133kts
01-Dec-20 23:11 33.775623 -117.805476 207 2136ft 133kts
01-Dec-20 23:12 33.775623 -117.805476 207 2136ft 133kts
01-Dec-20 23:13 33.775623 -117.805476 207 2136ft 133kts
01-Dec-20 23:14 33.775623 -117.805476 207 2136ft 133kts
01-Dec-20 23:15 33.775623 -117.805476 207 2136ft 133kts
01-Dec-20 23:16 33.775623 -117.805476 207 2136ft 133kts
01-Dec-20 23:17 33.775377 -117.805632 207 2131ft 133kts
01-Dec-20 23:18 33.775377 -117.805632 207 2131ft 133kts
01-Dec-20 23:19 33.775377 -117.805632 207 2131ft 133kts
01-Dec-20 23:20 33.775377 -117.805632 207 2131ft 133kts
01-Dec-20 23:21 33.775377 -117.805632 207 2131ft 133kts
01-Dec-20 23:22 33.775377 -117.805632 207 2131ft 133kts
01-Dec-20 23:23 33.775377 -117.805632 207 2131ft 133kts
01-Dec-20 23:24 33.775377 -117.805632 207 2131ft 133kts
01-Dec-20 23:25 33.775377 -117.805632 207 2131ft 133kts
01-Dec-20 23:26 33.775377 -117.805632 207 2131ft 133kts
01-Dec-20 23:27 33.775377 -117.805632 207 2131ft 133kts
01-Dec-20 23:28 33.775377 -117.805632 207 2131ft 133kts
01-Dec-20 23:29 33.775377 -117.805632 207 2131ft 133kts
01-Dec-20 23:30 33.775377 -117.805632 207 2131ft 133kts
01-Dec-20 23:31 33.775377 -117.805632 207 2131ft 133kts
01-Dec-20 23:32 33.761760 -117.814266 207 1823ft 132kts
01-Dec-20 23:33 33.737005 -117.829967 207 1282ft 130kts
01-Dec-20 23:34 33.713320 -117.844968 207 743ft 129kts
01-Dec-20 23:35 33.690041 -117.859831 208 219ft 128kts
01-Dec-20 23:36 33.674990 -117.868765 157 55ft 32kts
01-Dec-20 23:37 33.676326 -117.865130 26 49ft 26kts
01-Dec-20 23:38 33.678421 -117.863306 119 46ft 2kts
01-Dec-20 23:39 33.678310 -117.863029 113 48ft 0kts
01-Dec-20 23:40 33.678309 -117.863027 113 48ft 0kts
01-Dec-20 23:41 33.678309 -117.863027 113 48ft 0kts
01-Dec-20 23:42 33.678309 -117.863027 113 48ft 0kts
01-Dec-20 23:43 33.678309 -117.863027 113 48ft 0kts
01-Dec-20 23:44 33.678309 -117.863027 113 48ft 0kts

Navigation Log

Ident Type
Flight plan parsing failed, navigation log unavailable